Comanche — 9HTY6 — position and weather

sailwx.info

Track history (hours):
 
Tides and Currents Weather Stations Pressure Air Temp Water Temp Dewpoint Dewpoint Depression Visibility Wind Speed Wind Dir Waves Ship Positions

Comanche

Last reported at 2018-Jun-14 17:47 UTC. Time now 2018-Jul-20 16:15 UTC.
Position N 41°10' E 030°57'.
Warning: this ship's position is 35 days out of date.

Length 130 m; draft 2.7 m.

Type: Cargo ship. MMSI: 248855000.

Date/timePositionNaut miles runAvg speedWind from/ knotsBaromVisibWave heightAir tempDewpointWater temp
2018-Jun-14 17:47N 41°10' E 030°57'98 5.0
2018-Jun-13 22:13N 41°56' E 032°53'3 6.3
2018-Jun-13 21:47N 41°57' E 032°57'2 6.3
2018-Jun-13 21:28N 41°57' E 032°60'3 6.3
2018-Jun-13 20:57N 41°59' E 033°04'13 6.5
2018-Jun-13 19:02N 42°03' E 033°20'1 6.4
2018-Jun-13 18:52N 42°03' E 033°21'8 6.3
2018-Jun-13 17:37N 42°03' E 033°32'1 6.6
2018-Jun-13 17:30N 42°03' E 033°33'20 6.8
2018-Jun-13 14:33N 42°02' E 033°60'2 6.6
2018-Jun-13 14:12N 42°02' E 034°03'1 6.6
2018-Jun-13 14:00N 42°01' E 034°04'11 6.5
2018-Jun-13 12:21N 42°01' E 034°19'3 6.7
2018-Jun-13 11:51N 42°01' E 034°23'  
2018-Jun-07 07:09N 45°12' E 036°28'2 8.4
2018-Jun-07 06:56N 45°13' E 036°28'4 8.2
2018-Jun-07 06:30N 45°17' E 036°29'4 8.0
2018-Jun-07 06:00N 45°19' E 036°33'5 9.4
2018-Jun-07 05:30N 45°21' E 036°39'4 7.3
2018-Jun-07 05:00N 45°25' E 036°41'4 6.3
2018-Jun-07 04:26N 45°28' E 036°41'  
Track history (hours):
 
Tides and Currents Weather Stations Pressure Air Temp Water Temp Dewpoint Dewpoint Depression Visibility Wind Speed Wind Dir Waves Ship Positions

Comanche

Last reported at 2018-Jun-14 17:47 UTC. Time now 2018-Jul-20 16:15 UTC.
Position N 41°10' E 030°57'.
Warning: this ship's position is 35 days out of date.

Length 130 m; draft 2.7 m.

Type: Cargo ship. MMSI: 248855000.

Date/timePositionNaut miles runAvg speedWind from/ knotsBaromVisibWave heightAir tempDewpointWater temp
2018-Jun-14 17:47N 41°10' E 030°57'98 5.0
2018-Jun-13 22:13N 41°56' E 032°53'3 6.3
2018-Jun-13 21:47N 41°57' E 032°57'2 6.3
2018-Jun-13 21:28N 41°57' E 032°60'3 6.3
2018-Jun-13 20:57N 41°59' E 033°04'13 6.5
2018-Jun-13 19:02N 42°03' E 033°20'1 6.4
2018-Jun-13 18:52N 42°03' E 033°21'8 6.3
2018-Jun-13 17:37N 42°03' E 033°32'1 6.6
2018-Jun-13 17:30N 42°03' E 033°33'20 6.8
2018-Jun-13 14:33N 42°02' E 033°60'2 6.6
2018-Jun-13 14:12N 42°02' E 034°03'1 6.6
2018-Jun-13 14:00N 42°01' E 034°04'11 6.5
2018-Jun-13 12:21N 42°01' E 034°19'3 6.7
2018-Jun-13 11:51N 42°01' E 034°23'  
2018-Jun-07 07:09N 45°12' E 036°28'2 8.4
2018-Jun-07 06:56N 45°13' E 036°28'4 8.2
2018-Jun-07 06:30N 45°17' E 036°29'4 8.0
2018-Jun-07 06:00N 45°19' E 036°33'5 9.4
2018-Jun-07 05:30N 45°21' E 036°39'4 7.3
2018-Jun-07 05:00N 45°25' E 036°41'4 6.3
2018-Jun-07 04:26N 45°28' E 036°41'  

Dump ship's entire track history